createdAt,value
2023-07-03T00:01:55.511Z,12.37
2023-07-03T00:04:46.996Z,13.90
2023-07-03T00:07:34.450Z,13.00
2023-07-03T00:10:24.677Z,12.90
2023-07-03T00:13:11.916Z,11.93
2023-07-03T00:16:00.631Z,12.60
2023-07-03T00:18:49.271Z,13.60
2023-07-03T00:21:44.667Z,11.43
2023-07-03T00:24:32.737Z,12.63
2023-07-03T00:27:19.839Z,12.73
2023-07-03T00:30:07.424Z,13.40
2023-07-03T00:32:54.536Z,10.30
2023-07-03T00:35:42.011Z,13.13
2023-07-03T00:38:29.524Z,12.93
2023-07-03T00:41:16.629Z,12.10
2023-07-03T00:44:04.027Z,11.60
2023-07-03T00:46:52.160Z,13.63
2023-07-03T00:49:39.222Z,13.73
2023-07-03T00:52:26.670Z,15.97
2023-07-03T00:55:14.847Z,15.03
2023-07-03T00:58:01.947Z,14.57
2023-07-03T01:00:56.921Z,12.23
2023-07-03T01:04:06.060Z,12.70
2023-07-03T01:07:01.478Z,16.37
2023-07-03T01:09:53.712Z,14.60
2023-07-03T01:12:44.009Z,13.87
2023-07-03T01:15:37.845Z,12.63
2023-07-03T01:18:25.428Z,13.23
2023-07-03T01:21:20.848Z,12.43
2023-07-03T01:24:32.076Z,15.03
2023-07-03T01:27:22.786Z,13.63
2023-07-03T01:30:14.362Z,12.87
2023-07-03T01:33:04.492Z,11.90
2023-07-03T01:35:54.130Z,14.53
2023-07-03T01:38:44.295Z,14.20
2023-07-03T01:41:32.283Z,14.03
2023-07-03T01:44:19.286Z,14.43
2023-07-03T01:47:08.984Z,11.50
2023-07-03T01:49:56.285Z,14.70
2023-07-03T01:52:55.548Z,13.27
2023-07-03T01:56:11.966Z,14.77
2023-07-03T01:59:09.469Z,13.47
2023-07-03T02:02:13.912Z,13.17
2023-07-03T02:05:12.941Z,13.07
2023-07-03T02:08:02.688Z,14.10
2023-07-03T02:10:50.360Z,13.53
2023-07-03T02:13:37.398Z,14.17
2023-07-03T02:16:25.180Z,14.23
2023-07-03T02:19:15.005Z,15.20
2023-07-03T02:22:02.412Z,13.77
2023-07-03T02:24:49.430Z,12.50
2023-07-03T02:27:36.904Z,12.47
2023-07-03T02:30:24.061Z,12.10
2023-07-03T02:33:12.228Z,11.97
2023-07-03T02:36:04.124Z,13.73
2023-07-03T02:38:51.145Z,12.50
2023-07-03T02:41:38.213Z,14.63
2023-07-03T02:44:25.261Z,13.90
2023-07-03T02:47:12.457Z,15.97
2023-07-03T02:49:59.730Z,14.87
2023-07-03T02:52:46.913Z,13.10
2023-07-03T02:55:34.147Z,13.50
2023-07-03T02:58:21.522Z,15.20
2023-07-03T03:01:08.912Z,14.83
2023-07-03T03:03:56.698Z,18.03
2023-07-03T03:06:45.020Z,15.40
2023-07-03T03:09:32.667Z,15.33
2023-07-03T03:12:20.106Z,14.23
2023-07-03T03:15:07.959Z,12.97
2023-07-03T03:17:55.254Z,15.13
2023-07-03T03:20:43.910Z,16.13
2023-07-03T03:23:31.426Z,14.23
2023-07-03T03:26:18.518Z,14.90
2023-07-03T03:29:05.553Z,15.23
2023-07-03T03:31:52.627Z,16.13
2023-07-03T03:34:39.650Z,16.70
2023-07-03T03:37:26.880Z,18.27
2023-07-03T03:40:15.322Z,14.33
2023-07-03T03:43:02.379Z,15.33
2023-07-03T03:45:57.834Z,14.87
2023-07-03T03:48:46.349Z,13.67
2023-07-03T03:51:33.528Z,13.17
2023-07-03T03:54:21.423Z,12.33
2023-07-03T03:57:08.508Z,15.67
2023-07-03T03:59:56.532Z,16.20
2023-07-03T04:02:44.350Z,15.33
2023-07-03T04:05:31.622Z,15.37
2023-07-03T04:08:18.767Z,14.67
2023-07-03T04:11:05.838Z,16.40
2023-07-03T04:13:53.041Z,17.40
2023-07-03T04:16:40.307Z,15.33
2023-07-03T04:19:29.774Z,13.00
2023-07-03T04:22:16.794Z,13.73
2023-07-03T04:25:03.960Z,15.70
2023-07-03T04:27:51.006Z,22.47
2023-07-03T04:30:38.334Z,14.07
2023-07-03T04:33:25.377Z,15.43
2023-07-03T04:36:13.768Z,14.73
2023-07-03T04:39:01.999Z,13.90
2023-07-03T04:41:49.574Z,15.00
2023-07-03T04:44:36.647Z,17.37
2023-07-03T04:47:23.772Z,16.90
2023-07-03T04:50:16.661Z,15.07
2023-07-03T04:53:04.836Z,15.67
2023-07-03T04:55:52.327Z,16.57
2023-07-03T04:58:40.159Z,15.50
2023-07-03T05:01:27.249Z,16.07
2023-07-03T05:04:14.427Z,16.77
2023-07-03T05:07:02.593Z,17.10
2023-07-03T05:09:49.607Z,14.13
2023-07-03T05:12:37.244Z,13.90
2023-07-03T05:15:26.068Z,16.43
2023-07-03T05:18:13.132Z,15.63
2023-07-03T05:21:00.229Z,16.67
2023-07-03T05:23:47.408Z,16.10
2023-07-03T05:26:34.692Z,14.43
2023-07-03T05:29:22.241Z,15.53
2023-07-03T05:32:09.417Z,13.57
2023-07-03T05:34:56.526Z,16.10
2023-07-03T05:37:43.562Z,13.77
2023-07-03T05:40:30.913Z,15.00
2023-07-03T05:43:18.748Z,15.20
2023-07-03T05:46:05.814Z,14.40
2023-07-03T05:48:52.826Z,19.23
2023-07-03T05:51:39.971Z,13.53
2023-07-03T05:54:27.115Z,16.10
2023-07-03T05:57:15.097Z,15.20
2023-07-03T06:00:02.224Z,15.93
2023-07-03T06:03:00.749Z,14.90
2023-07-03T06:05:49.188Z,17.17
2023-07-03T06:08:36.658Z,16.93
2023-07-03T06:11:23.652Z,14.77
2023-07-03T06:14:18.630Z,15.37
2023-07-03T06:17:05.920Z,13.03
2023-07-03T06:19:53.354Z,13.50
2023-07-03T06:22:42.505Z,14.23
2023-07-03T06:25:29.641Z,14.43
2023-07-03T06:28:16.661Z,14.07
2023-07-03T06:31:04.083Z,13.50
2023-07-03T06:33:51.190Z,15.67
2023-07-03T06:36:38.385Z,13.20
2023-07-03T06:39:25.381Z,14.23
2023-07-03T06:42:12.422Z,12.93
2023-07-03T06:45:04.896Z,15.67
2023-07-03T06:47:52.823Z,15.23
2023-07-03T06:50:40.019Z,12.80
2023-07-03T06:53:27.027Z,13.10
2023-07-03T06:56:14.142Z,14.37
2023-07-03T06:59:01.145Z,15.53
2023-07-03T07:01:48.318Z,13.27
2023-07-03T07:04:35.400Z,12.70
2023-07-03T07:07:22.505Z,14.23
2023-07-03T07:10:09.696Z,16.43
2023-07-03T07:12:56.734Z,13.53
2023-07-03T07:15:43.786Z,13.37
2023-07-03T07:18:30.893Z,12.90
2023-07-03T07:21:18.493Z,13.33
2023-07-03T07:24:23.406Z,12.73
2023-07-03T07:27:10.449Z,17.87
2023-07-03T07:29:57.483Z,12.90
2023-07-03T07:32:48.139Z,12.77
2023-07-03T07:35:36.817Z,10.53
2023-07-03T07:38:23.897Z,11.33
2023-07-03T07:41:12.305Z,13.70
2023-07-03T07:43:59.975Z,12.80
2023-07-03T07:46:47.609Z,13.67
2023-07-03T07:49:35.079Z,13.90
2023-07-03T07:52:25.032Z,10.63
2023-07-03T07:55:12.343Z,14.27
2023-07-03T07:57:59.656Z,16.63
2023-07-03T08:00:52.447Z,12.20
2023-07-03T08:03:41.115Z,12.90
2023-07-03T08:06:28.756Z,11.83
2023-07-03T08:09:16.129Z,11.70
2023-07-03T08:12:04.089Z,12.57
2023-07-03T08:14:51.206Z,13.10
2023-07-03T08:17:38.546Z,11.70
2023-07-03T08:20:26.116Z,11.20
2023-07-03T08:23:13.430Z,9.27
2023-07-03T08:26:02.303Z,12.33
2023-07-03T08:28:49.673Z,12.07
2023-07-03T08:31:36.710Z,13.57
2023-07-03T08:34:23.924Z,10.17
2023-07-03T08:37:11.183Z,12.50
2023-07-03T08:39:58.329Z,12.53
2023-07-03T08:42:54.473Z,9.83
2023-07-03T08:45:44.953Z,10.47
2023-07-03T08:48:36.227Z,9.80
2023-07-03T08:51:29.128Z,10.90
2023-07-03T08:54:24.001Z,12.10
2023-07-03T08:57:12.699Z,11.37
2023-07-03T08:59:59.798Z,13.03
2023-07-03T09:02:58.886Z,12.87
2023-07-03T09:06:18.250Z,12.37
2023-07-03T09:09:26.908Z,9.47
2023-07-03T09:12:32.937Z,13.43
2023-07-03T09:15:39.036Z,10.63
2023-07-03T09:18:32.070Z,9.77
2023-07-03T09:21:20.352Z,11.60
2023-07-03T09:24:27.021Z,12.00
2023-07-03T09:27:21.113Z,12.40
2023-07-03T09:30:10.411Z,10.73
2023-07-03T09:32:58.596Z,10.23
2023-07-03T09:35:45.735Z,11.03
2023-07-03T09:38:36.178Z,14.00
2023-07-03T09:41:31.246Z,11.77
2023-07-03T09:44:20.314Z,9.03
2023-07-03T09:47:19.994Z,12.80
2023-07-03T09:50:10.465Z,12.17
2023-07-03T09:53:08.310Z,10.97
2023-07-03T09:55:58.926Z,9.10
2023-07-03T09:58:49.773Z,12.17
2023-07-03T10:07:23.590Z,9.13
2023-07-03T10:13:29.517Z,10.87
2023-07-03T10:16:17.227Z,9.33
2023-07-03T10:19:04.592Z,8.23
2023-07-03T10:21:53.674Z,7.43
2023-07-03T10:24:43.821Z,8.67
2023-07-03T10:27:33.903Z,8.07
2023-07-03T10:30:22.090Z,8.53
2023-07-03T10:33:15.593Z,7.40
2023-07-03T10:36:07.816Z,7.90
2023-07-03T10:39:12.926Z,7.77
2023-07-03T10:42:06.690Z,8.53
2023-07-03T10:45:02.030Z,8.23
2023-07-03T10:48:03.496Z,8.77
2023-07-03T10:51:04.216Z,7.47
2023-07-03T10:54:05.009Z,8.23
2023-07-03T10:56:56.422Z,7.87
2023-07-03T10:59:48.430Z,10.97
2023-07-03T11:03:07.687Z,11.53
2023-07-03T11:06:05.870Z,7.10
2023-07-03T11:09:01.237Z,9.63
2023-07-03T11:12:30.294Z,7.17
2023-07-03T11:15:28.905Z,8.17
2023-07-03T11:24:50.216Z,9.27
2023-07-03T11:27:59.017Z,8.03
2023-07-03T11:30:47.924Z,6.30
2023-07-03T11:36:49.652Z,9.47
2023-07-03T11:39:51.035Z,7.17
2023-07-03T11:45:28.859Z,8.30
2023-07-03T11:48:26.644Z,8.77
2023-07-03T11:51:35.276Z,7.17
2023-07-03T11:54:25.367Z,7.57
2023-07-03T11:57:30.639Z,10.17
2023-07-03T12:00:26.898Z,8.33
2023-07-03T12:03:15.544Z,8.27
2023-07-03T12:06:02.690Z,7.40
2023-07-03T12:08:49.791Z,6.33
2023-07-03T12:12:04.308Z,8.00
2023-07-03T12:14:52.701Z,7.43
2023-07-03T12:17:39.902Z,6.90
2023-07-03T12:20:26.928Z,6.50
2023-07-03T12:23:31.332Z,5.27
2023-07-03T12:26:19.063Z,7.37
2023-07-03T12:29:06.122Z,8.43
2023-07-03T12:32:08.868Z,6.80
2023-07-03T12:35:16.490Z,6.57
2023-07-03T12:38:10.420Z,5.90
2023-07-03T12:40:57.611Z,6.67
2023-07-03T12:43:46.790Z,8.63
2023-07-03T12:46:38.907Z,7.33
2023-07-03T12:49:26.069Z,7.00
2023-07-03T12:52:15.537Z,10.03
2023-07-03T12:57:55.169Z,6.17
2023-07-03T13:00:42.214Z,11.27
2023-07-03T13:03:29.477Z,7.63
2023-07-03T13:06:19.949Z,6.40
2023-07-03T13:09:14.033Z,5.63
2023-07-03T13:12:01.233Z,6.67
2023-07-03T13:15:29.860Z,8.77
2023-07-03T13:18:20.939Z,7.77
2023-07-03T13:21:08.087Z,8.07
2023-07-03T13:23:55.084Z,8.60
2023-07-03T13:26:46.461Z,6.27
2023-07-03T13:29:35.027Z,8.30
2023-07-03T13:32:24.214Z,6.47
2023-07-03T13:35:11.297Z,8.53
2023-07-03T13:38:27.528Z,10.37
2023-07-03T13:41:14.577Z,9.53
2023-07-03T13:44:03.734Z,6.83
2023-07-03T13:46:52.870Z,5.90
2023-07-03T13:49:42.156Z,5.17
2023-07-03T13:52:29.174Z,7.77
2023-07-03T13:55:16.276Z,7.27
2023-07-03T13:58:03.444Z,6.83
2023-07-03T14:00:50.569Z,7.53
2023-07-03T14:03:38.007Z,8.93
2023-07-03T14:06:25.315Z,6.23
2023-07-03T14:09:12.330Z,8.23
2023-07-03T14:11:59.451Z,7.20
2023-07-03T14:14:46.575Z,6.93
2023-07-03T14:17:33.940Z,5.83
2023-07-03T14:20:21.658Z,8.97
2023-07-03T14:23:08.980Z,7.77
2023-07-03T14:25:56.918Z,8.27
2023-07-03T14:28:45.420Z,11.63
2023-07-03T14:31:32.702Z,6.23
2023-07-03T14:34:19.692Z,8.97
2023-07-03T14:37:06.989Z,9.17
2023-07-03T14:39:54.051Z,7.03
2023-07-03T14:42:41.109Z,7.27
2023-07-03T14:45:28.080Z,7.00
2023-07-03T14:48:15.179Z,9.33
2023-07-03T14:51:02.808Z,6.37
2023-07-03T14:53:49.858Z,8.83
2023-07-03T14:56:36.860Z,6.10
2023-07-03T14:59:24.061Z,8.33
2023-07-03T15:02:11.395Z,7.47
2023-07-03T15:04:58.450Z,8.53
2023-07-03T15:07:46.633Z,7.73
2023-07-03T15:10:37.448Z,7.53
2023-07-03T15:13:24.529Z,5.93
2023-07-03T15:16:11.614Z,8.67
2023-07-03T15:19:08.691Z,6.07
2023-07-03T15:21:55.953Z,8.23
2023-07-03T15:24:43.958Z,7.60
2023-07-03T15:27:31.850Z,6.57
2023-07-03T15:30:19.015Z,8.30
2023-07-03T15:33:06.126Z,9.13
2023-07-03T15:35:57.324Z,8.13
2023-07-03T15:38:44.609Z,10.43
2023-07-03T15:41:31.645Z,9.27
2023-07-03T15:44:19.578Z,6.47
2023-07-03T15:47:08.623Z,7.87
2023-07-03T15:49:57.209Z,7.83
2023-07-03T15:52:44.227Z,6.07
2023-07-03T15:55:31.258Z,9.87
2023-07-03T15:58:18.245Z,7.10
2023-07-03T16:01:19.800Z,6.77
2023-07-03T16:04:07.006Z,5.60
2023-07-03T16:06:54.097Z,5.13
2023-07-03T16:09:41.112Z,5.67
2023-07-03T16:12:28.115Z,8.27
2023-07-03T16:15:15.112Z,6.90
2023-07-03T16:18:02.212Z,6.47
2023-07-03T16:20:56.795Z,6.00
2023-07-03T16:23:44.016Z,8.23
2023-07-03T16:26:31.912Z,4.57
2023-07-03T16:29:19.010Z,5.30
2023-07-03T16:32:06.163Z,5.03
2023-07-03T16:34:53.187Z,6.37
2023-07-03T16:37:40.212Z,5.90
2023-07-03T16:40:28.830Z,6.03
2023-07-03T16:43:15.932Z,5.10
2023-07-03T16:46:05.156Z,9.33
2023-07-03T16:48:54.285Z,8.40
2023-07-03T16:51:41.337Z,5.80
2023-07-03T16:54:28.334Z,4.73
2023-07-03T16:57:15.360Z,6.73
2023-07-03T17:00:02.410Z,5.63
2023-07-03T17:02:51.961Z,6.63
2023-07-03T17:05:41.827Z,6.87
2023-07-03T17:08:30.362Z,5.70
2023-07-03T17:11:17.918Z,6.93
2023-07-03T17:14:05.464Z,6.87
2023-07-03T17:16:52.613Z,6.10
2023-07-03T17:19:39.672Z,6.77
2023-07-03T17:22:26.737Z,4.83
2023-07-03T17:25:13.904Z,3.77
2023-07-03T17:28:01.903Z,5.27
2023-07-03T17:30:49.732Z,6.77
2023-07-03T17:33:37.615Z,5.77
2023-07-03T17:36:25.172Z,4.53
2023-07-03T17:39:12.242Z,6.47
2023-07-03T17:41:59.230Z,4.53
2023-07-03T17:44:46.253Z,6.07
2023-07-03T17:47:33.294Z,3.77
2023-07-03T17:50:20.661Z,6.17
2023-07-03T17:53:08.108Z,5.60
2023-07-03T17:55:55.401Z,7.07
2023-07-03T17:58:44.426Z,3.27
2023-07-03T18:01:31.582Z,4.07
2023-07-03T18:04:18.681Z,5.13
2023-07-03T18:07:06.694Z,4.17
2023-07-03T18:09:53.898Z,4.93
2023-07-03T18:12:41.067Z,4.73
2023-07-03T18:15:43.413Z,3.50
2023-07-03T18:18:35.955Z,3.80
2023-07-03T18:21:22.984Z,3.93
2023-07-03T18:24:10.678Z,4.03
2023-07-03T18:26:58.695Z,3.37
2023-07-03T18:29:45.833Z,2.80
2023-07-03T18:32:34.448Z,7.33
2023-07-03T18:35:21.497Z,3.87
2023-07-03T18:38:08.607Z,2.97
2023-07-03T18:40:55.649Z,2.17
2023-07-03T18:43:43.552Z,1.63
2023-07-03T18:46:30.701Z,1.97
2023-07-03T18:49:17.850Z,2.67
2023-07-03T18:52:05.256Z,1.73
2023-07-03T18:54:53.182Z,2.50
2023-07-03T18:57:40.395Z,4.40
2023-07-03T19:00:27.677Z,2.33
2023-07-03T19:03:14.827Z,2.93
2023-07-03T19:06:02.075Z,2.20
2023-07-03T19:08:49.164Z,5.87
2023-07-03T19:11:38.642Z,9.87
2023-07-03T19:14:25.789Z,8.87
2023-07-03T19:17:12.892Z,8.83
2023-07-03T19:20:00.048Z,7.60
2023-07-03T19:22:47.535Z,4.37
2023-07-03T19:25:35.205Z,3.67
2023-07-03T19:28:23.323Z,3.47
2023-07-03T19:31:10.752Z,3.40
2023-07-03T19:34:00.978Z,2.53
2023-07-03T19:36:48.004Z,5.57
2023-07-03T19:39:35.126Z,1.83
2023-07-03T19:42:22.188Z,3.60
2023-07-03T19:45:09.688Z,2.07
2023-07-03T19:47:57.367Z,8.00
2023-07-03T19:50:44.520Z,4.80
2023-07-03T19:53:32.020Z,4.90
2023-07-03T19:56:21.045Z,2.23
2023-07-03T19:59:09.276Z,2.33
2023-07-03T20:01:56.333Z,5.90
2023-07-03T20:04:43.505Z,3.97
2023-07-03T20:07:30.581Z,2.30
2023-07-03T20:10:18.187Z,1.70
2023-07-03T20:13:05.351Z,3.73
2023-07-03T20:15:52.808Z,3.87
2023-07-03T20:18:40.064Z,2.97
2023-07-03T20:21:27.248Z,2.40
2023-07-03T20:24:14.525Z,4.53
2023-07-03T20:27:01.625Z,3.83
2023-07-03T20:29:52.672Z,2.00
2023-07-03T20:32:39.796Z,1.80
2023-07-03T20:35:27.428Z,2.27
2023-07-03T20:38:14.441Z,1.90
2023-07-03T20:41:05.038Z,2.67
2023-07-03T20:43:52.215Z,3.07
2023-07-03T20:46:39.297Z,2.03
2023-07-03T20:49:27.164Z,1.87
2023-07-03T20:52:17.319Z,2.17
2023-07-03T20:55:13.138Z,2.13
2023-07-03T20:58:00.277Z,1.80
2023-07-03T21:00:47.340Z,1.73
2023-07-03T21:03:34.875Z,1.90
2023-07-03T21:06:24.641Z,2.17
2023-07-03T21:09:11.654Z,2.40
2023-07-03T21:11:59.051Z,1.70
2023-07-03T21:14:46.094Z,2.20
2023-07-03T21:17:33.159Z,2.30
2023-07-03T21:20:20.219Z,2.40
2023-07-03T21:23:07.240Z,2.67
2023-07-03T21:25:56.011Z,1.90
2023-07-03T21:28:43.096Z,3.77
2023-07-03T21:31:33.406Z,1.90
2023-07-03T21:34:20.446Z,3.03
2023-07-03T21:37:08.820Z,2.00
2023-07-03T21:39:55.855Z,2.23
2023-07-03T21:42:43.206Z,2.30
2023-07-03T21:45:30.391Z,2.50
2023-07-03T21:48:17.384Z,2.50
2023-07-03T21:51:06.538Z,2.67
2023-07-03T21:53:54.997Z,3.30
2023-07-03T21:56:43.275Z,2.83
2023-07-03T21:59:30.455Z,5.83
2023-07-03T22:02:17.516Z,4.83
2023-07-03T22:05:04.821Z,3.03
2023-07-03T22:07:51.832Z,4.10
2023-07-03T22:10:38.876Z,3.83
2023-07-03T22:13:25.964Z,2.93
2023-07-03T22:16:17.538Z,4.37
2023-07-03T22:19:04.832Z,5.00
2023-07-03T22:21:52.050Z,4.37
2023-07-03T22:24:39.108Z,4.20
2023-07-03T22:27:26.123Z,4.30
2023-07-03T22:30:13.664Z,3.77
2023-07-03T22:33:00.834Z,4.00
2023-07-03T22:35:48.016Z,4.23
2023-07-03T22:38:35.010Z,5.03
2023-07-03T22:41:23.457Z,4.77
2023-07-03T22:44:10.724Z,4.53
2023-07-03T22:46:57.819Z,5.63
2023-07-03T22:49:44.915Z,3.57
2023-07-03T22:52:33.687Z,4.00
2023-07-03T22:55:20.946Z,4.73
2023-07-03T22:58:10.210Z,4.07
2023-07-03T23:00:57.466Z,7.23
2023-07-03T23:04:02.970Z,3.80
2023-07-03T23:07:08.737Z,4.17
2023-07-03T23:09:55.898Z,3.53
2023-07-03T23:12:42.981Z,3.50
2023-07-03T23:15:30.046Z,5.33
2023-07-03T23:18:17.097Z,3.63
2023-07-03T23:21:08.045Z,3.90
2023-07-03T23:23:56.627Z,3.73
2023-07-03T23:26:43.700Z,3.10
2023-07-03T23:29:30.921Z,3.23
2023-07-03T23:32:19.938Z,3.33
2023-07-03T23:35:07.484Z,3.67
2023-07-03T23:37:54.541Z,3.80
2023-07-03T23:40:41.706Z,4.30
2023-07-03T23:43:28.809Z,4.17
2023-07-03T23:46:17.138Z,3.77
2023-07-03T23:49:04.756Z,4.83
2023-07-03T23:51:55.115Z,4.20
2023-07-03T23:54:42.181Z,5.13
2023-07-03T23:57:29.239Z,3.90
